sensor_id;sensor_type;location;lat;lon;timestamp;P1;durP1;ratioP1;P2;durP2;ratioP2
60054;SDS011;45930;53.514;55.904;2023-05-16T00:00:50;53.50;;;43.88;;
60054;SDS011;45930;53.514;55.904;2023-05-16T00:01:53;57.47;;;46.03;;
60054;SDS011;45930;53.514;55.904;2023-05-16T00:02:54;58.33;;;46.95;;
60054;SDS011;45930;53.514;55.904;2023-05-16T00:03:55;58.28;;;46.97;;
60054;SDS011;45930;53.514;55.904;2023-05-16T00:04:56;56.25;;;46.17;;
60054;SDS011;45930;53.514;55.904;2023-05-16T00:05:57;54.42;;;45.67;;
60054;SDS011;45930;53.514;55.904;2023-05-16T00:06:58;55.53;;;46.97;;
60054;SDS011;45930;53.514;55.904;2023-05-16T00:07:59;54.35;;;45.75;;
60054;SDS011;45930;53.514;55.904;2023-05-16T00:09:00;50.47;;;42.53;;
60054;SDS011;45930;53.514;55.904;2023-05-16T00:10:01;46.75;;;41.55;;
60054;SDS011;45930;53.514;55.904;2023-05-16T00:11:04;48.25;;;42.72;;
60054;SDS011;45930;53.514;55.904;2023-05-16T00:12:05;50.28;;;42.92;;
60054;SDS011;45930;53.514;55.904;2023-05-16T00:13:06;54.15;;;44.75;;
60054;SDS011;45930;53.514;55.904;2023-05-16T00:14:07;51.92;;;44.03;;
60054;SDS011;45930;53.514;55.904;2023-05-16T00:15:09;51.22;;;44.47;;
60054;SDS011;45930;53.514;55.904;2023-05-16T00:16:13;55.00;;;43.60;;
60054;SDS011;45930;53.514;55.904;2023-05-16T00:17:17;53.00;;;43.55;;
60054;SDS011;45930;53.514;55.904;2023-05-16T00:18:19;52.08;;;43.65;;
60054;SDS011;45930;53.514;55.904;2023-05-16T00:19:23;56.42;;;45.38;;
60054;SDS011;45930;53.514;55.904;2023-05-16T00:20:25;62.80;;;50.05;;
60054;SDS011;45930;53.514;55.904;2023-05-16T00:21:27;58.17;;;46.08;;
60054;SDS011;45930;53.514;55.904;2023-05-16T00:22:27;51.63;;;43.33;;
60054;SDS011;45930;53.514;55.904;2023-05-16T00:23:28;53.65;;;44.13;;
60054;SDS011;45930;53.514;55.904;2023-05-16T00:24:30;56.00;;;44.33;;
60054;SDS011;45930;53.514;55.904;2023-05-16T00:25:31;52.53;;;42.85;;
60054;SDS011;45930;53.514;55.904;2023-05-16T00:26:32;57.13;;;45.15;;
60054;SDS011;45930;53.514;55.904;2023-05-16T00:27:33;55.50;;;44.25;;
60054;SDS011;45930;53.514;55.904;2023-05-16T00:28:35;58.55;;;44.10;;
60054;SDS011;45930;53.514;55.904;2023-05-16T00:29:36;57.75;;;46.15;;
60054;SDS011;45930;53.514;55.904;2023-05-16T00:30:36;53.45;;;44.13;;
60054;SDS011;45930;53.514;55.904;2023-05-16T00:31:37;55.88;;;45.42;;
60054;SDS011;45930;53.514;55.904;2023-05-16T00:32:38;60.20;;;46.85;;
60054;SDS011;45930;53.514;55.904;2023-05-16T00:33:42;61.00;;;46.78;;
60054;SDS011;45930;53.514;55.904;2023-05-16T00:34:42;63.58;;;47.95;;
60054;SDS011;45930;53.514;55.904;2023-05-16T00:35:43;57.97;;;46.78;;
60054;SDS011;45930;53.514;55.904;2023-05-16T00:36:44;58.20;;;45.80;;
60054;SDS011;45930;53.514;55.904;2023-05-16T00:37:45;54.75;;;46.67;;
60054;SDS011;45930;53.514;55.904;2023-05-16T00:38:46;61.33;;;47.78;;
60054;SDS011;45930;53.514;55.904;2023-05-16T00:39:47;67.35;;;49.10;;
60054;SDS011;45930;53.514;55.904;2023-05-16T00:40:47;61.40;;;48.20;;
60054;SDS011;45930;53.514;55.904;2023-05-16T00:41:48;60.85;;;47.85;;
60054;SDS011;45930;53.514;55.904;2023-05-16T00:42:49;58.60;;;45.63;;
60054;SDS011;45930;53.514;55.904;2023-05-16T00:43:50;59.10;;;46.78;;
60054;SDS011;45930;53.514;55.904;2023-05-16T00:44:51;61.35;;;48.15;;
60054;SDS011;45930;53.514;55.904;2023-05-16T00:45:51;57.92;;;47.28;;
60054;SDS011;45930;53.514;55.904;2023-05-16T00:46:52;62.28;;;47.60;;
60054;SDS011;45930;53.514;55.904;2023-05-16T00:47:54;61.97;;;47.53;;
60054;SDS011;45930;53.514;55.904;2023-05-16T00:48:54;58.88;;;44.67;;
60054;SDS011;45930;53.514;55.904;2023-05-16T00:49:55;62.53;;;49.05;;
60054;SDS011;45930;53.514;55.904;2023-05-16T00:50:56;63.38;;;48.45;;
60054;SDS011;45930;53.514;55.904;2023-05-16T00:51:57;58.13;;;47.92;;
60054;SDS011;45930;53.514;55.904;2023-05-16T00:52:58;59.60;;;46.92;;
60054;SDS011;45930;53.514;55.904;2023-05-16T00:53:59;59.40;;;47.13;;
60054;SDS011;45930;53.514;55.904;2023-05-16T00:55:00;55.45;;;44.20;;
60054;SDS011;45930;53.514;55.904;2023-05-16T00:56:01;57.15;;;45.58;;
60054;SDS011;45930;53.514;55.904;2023-05-16T00:57:02;57.97;;;47.58;;
60054;SDS011;45930;53.514;55.904;2023-05-16T00:58:05;57.22;;;47.53;;
60054;SDS011;45930;53.514;55.904;2023-05-16T00:59:06;57.47;;;46.10;;
60054;SDS011;45930;53.514;55.904;2023-05-16T01:00:07;58.22;;;47.03;;
60054;SDS011;45930;53.514;55.904;2023-05-16T01:01:13;54.83;;;45.65;;
60054;SDS011;45930;53.514;55.904;2023-05-16T01:02:15;58.13;;;46.53;;
60054;SDS011;45930;53.514;55.904;2023-05-16T01:03:16;56.47;;;46.25;;
60054;SDS011;45930;53.514;55.904;2023-05-16T01:04:17;59.15;;;46.67;;
60054;SDS011;45930;53.514;55.904;2023-05-16T01:05:19;57.75;;;46.75;;
60054;SDS011;45930;53.514;55.904;2023-05-16T01:06:20;56.92;;;45.78;;
60054;SDS011;45930;53.514;55.904;2023-05-16T01:07:21;57.70;;;45.97;;
60054;SDS011;45930;53.514;55.904;2023-05-16T01:08:22;62.33;;;48.13;;
60054;SDS011;45930;53.514;55.904;2023-05-16T01:09:23;62.13;;;48.40;;
60054;SDS011;45930;53.514;55.904;2023-05-16T01:10:24;59.70;;;48.33;;
60054;SDS011;45930;53.514;55.904;2023-05-16T01:13:11;56.30;;;45.83;;
60054;SDS011;45930;53.514;55.904;2023-05-16T01:17:17;52.80;;;43.63;;
60054;SDS011;45930;53.514;55.904;2023-05-16T01:20:58;54.13;;;41.85;;
60054;SDS011;45930;53.514;55.904;2023-05-16T01:22:17;48.97;;;41.70;;
60054;SDS011;45930;53.514;55.904;2023-05-16T01:27:07;56.38;;;45.47;;
60054;SDS011;45930;53.514;55.904;2023-05-16T01:28:14;56.53;;;44.90;;
60054;SDS011;45930;53.514;55.904;2023-05-16T01:29:16;50.15;;;43.15;;
60054;SDS011;45930;53.514;55.904;2023-05-16T01:30:18;55.05;;;44.42;;
60054;SDS011;45930;53.514;55.904;2023-05-16T01:31:19;51.88;;;41.78;;
60054;SDS011;45930;53.514;55.904;2023-05-16T01:32:21;48.75;;;41.15;;
60054;SDS011;45930;53.514;55.904;2023-05-16T01:33:22;47.70;;;40.67;;
60054;SDS011;45930;53.514;55.904;2023-05-16T01:34:23;51.20;;;42.58;;
60054;SDS011;45930;53.514;55.904;2023-05-16T01:35:23;49.97;;;42.10;;
60054;SDS011;45930;53.514;55.904;2023-05-16T01:37:33;47.72;;;41.13;;
60054;SDS011;45930;53.514;55.904;2023-05-16T01:38:39;47.47;;;40.55;;
60054;SDS011;45930;53.514;55.904;2023-05-16T01:39:55;50.08;;;42.38;;
60054;SDS011;45930;53.514;55.904;2023-05-16T01:41:12;51.05;;;44.40;;
60054;SDS011;45930;53.514;55.904;2023-05-16T01:42:20;51.90;;;43.42;;
60054;SDS011;45930;53.514;55.904;2023-05-16T01:43:32;52.22;;;43.00;;
60054;SDS011;45930;53.514;55.904;2023-05-16T01:45:43;54.67;;;44.13;;
60054;SDS011;45930;53.514;55.904;2023-05-16T01:46:51;63.35;;;49.08;;
60054;SDS011;45930;53.514;55.904;2023-05-16T01:48:09;57.83;;;47.65;;
60054;SDS011;45930;53.514;55.904;2023-05-16T01:49:26;59.90;;;48.70;;
60054;SDS011;45930;53.514;55.904;2023-05-16T01:50:43;59.40;;;47.92;;
60054;SDS011;45930;53.514;55.904;2023-05-16T01:51:53;62.95;;;49.25;;
60054;SDS011;45930;53.514;55.904;2023-05-16T01:52:59;58.20;;;47.47;;
60054;SDS011;45930;53.514;55.904;2023-05-16T01:54:17;61.35;;;48.15;;
60054;SDS011;45930;53.514;55.904;2023-05-16T01:55:44;61.15;;;49.63;;
60054;SDS011;45930;53.514;55.904;2023-05-16T01:56:49;64.82;;;51.38;;
60054;SDS011;45930;53.514;55.904;2023-05-16T01:57:52;65.03;;;50.47;;
60054;SDS011;45930;53.514;55.904;2023-05-16T01:58:53;62.30;;;49.40;;
60054;SDS011;45930;53.514;55.904;2023-05-16T01:59:57;63.40;;;50.03;;
60054;SDS011;45930;53.514;55.904;2023-05-16T02:01:02;62.25;;;48.75;;
60054;SDS011;45930;53.514;55.904;2023-05-16T02:02:04;61.67;;;48.47;;
60054;SDS011;45930;53.514;55.904;2023-05-16T02:03:05;64.15;;;48.78;;
60054;SDS011;45930;53.514;55.904;2023-05-16T02:04:06;64.55;;;49.92;;
60054;SDS011;45930;53.514;55.904;2023-05-16T02:05:07;60.08;;;48.70;;
60054;SDS011;45930;53.514;55.904;2023-05-16T02:06:08;60.85;;;49.17;;
60054;SDS011;45930;53.514;55.904;2023-05-16T02:07:08;59.90;;;47.55;;
60054;SDS011;45930;53.514;55.904;2023-05-16T02:08:09;61.72;;;48.03;;
60054;SDS011;45930;53.514;55.904;2023-05-16T02:09:10;62.92;;;46.80;;
60054;SDS011;45930;53.514;55.904;2023-05-16T02:10:11;62.33;;;46.58;;
60054;SDS011;45930;53.514;55.904;2023-05-16T02:11:13;61.15;;;46.53;;
60054;SDS011;45930;53.514;55.904;2023-05-16T02:12:13;62.80;;;46.55;;
60054;SDS011;45930;53.514;55.904;2023-05-16T02:13:14;60.67;;;46.03;;
60054;SDS011;45930;53.514;55.904;2023-05-16T02:14:15;59.80;;;47.17;;
60054;SDS011;45930;53.514;55.904;2023-05-16T02:15:16;63.80;;;48.35;;
60054;SDS011;45930;53.514;55.904;2023-05-16T02:16:16;64.82;;;48.85;;
60054;SDS011;45930;53.514;55.904;2023-05-16T02:17:17;63.50;;;48.63;;
60054;SDS011;45930;53.514;55.904;2023-05-16T02:18:18;58.67;;;46.78;;
60054;SDS011;45930;53.514;55.904;2023-05-16T02:19:19;64.20;;;47.40;;
60054;SDS011;45930;53.514;55.904;2023-05-16T02:20:20;59.08;;;47.75;;
60054;SDS011;45930;53.514;55.904;2023-05-16T02:21:20;58.58;;;45.00;;
60054;SDS011;45930;53.514;55.904;2023-05-16T02:22:21;58.45;;;46.35;;
60054;SDS011;45930;53.514;55.904;2023-05-16T02:23:22;59.10;;;46.60;;
60054;SDS011;45930;53.514;55.904;2023-05-16T02:24:23;58.40;;;46.30;;
60054;SDS011;45930;53.514;55.904;2023-05-16T02:25:23;56.08;;;45.22;;
60054;SDS011;45930;53.514;55.904;2023-05-16T02:26:24;57.58;;;44.95;;
60054;SDS011;45930;53.514;55.904;2023-05-16T02:27:25;55.22;;;46.20;;
60054;SDS011;45930;53.514;55.904;2023-05-16T02:28:26;54.75;;;43.90;;
60054;SDS011;45930;53.514;55.904;2023-05-16T02:29:26;56.38;;;43.70;;
60054;SDS011;45930;53.514;55.904;2023-05-16T02:30:27;52.80;;;42.28;;
60054;SDS011;45930;53.514;55.904;2023-05-16T02:31:29;56.83;;;42.85;;
60054;SDS011;45930;53.514;55.904;2023-05-16T02:32:33;54.72;;;44.05;;
60054;SDS011;45930;53.514;55.904;2023-05-16T02:33:35;54.33;;;43.25;;
60054;SDS011;45930;53.514;55.904;2023-05-16T02:34:36;49.92;;;41.08;;
60054;SDS011;45930;53.514;55.904;2023-05-16T02:35:36;52.38;;;41.58;;
60054;SDS011;45930;53.514;55.904;2023-05-16T02:36:37;49.05;;;40.17;;
60054;SDS011;45930;53.514;55.904;2023-05-16T02:37:38;47.55;;;40.47;;
60054;SDS011;45930;53.514;55.904;2023-05-16T02:38:39;52.60;;;42.28;;
60054;SDS011;45930;53.514;55.904;2023-05-16T02:39:40;49.20;;;39.63;;
60054;SDS011;45930;53.514;55.904;2023-05-16T02:40:41;50.05;;;40.80;;
60054;SDS011;45930;53.514;55.904;2023-05-16T02:41:42;48.13;;;39.17;;
60054;SDS011;45930;53.514;55.904;2023-05-16T02:42:43;46.97;;;38.83;;
60054;SDS011;45930;53.514;55.904;2023-05-16T02:43:44;49.03;;;39.85;;
60054;SDS011;45930;53.514;55.904;2023-05-16T02:44:45;49.33;;;41.22;;
60054;SDS011;45930;53.514;55.904;2023-05-16T02:45:45;51.17;;;41.33;;
60054;SDS011;45930;53.514;55.904;2023-05-16T02:46:46;46.88;;;38.90;;
60054;SDS011;45930;53.514;55.904;2023-05-16T02:47:47;45.63;;;37.40;;
60054;SDS011;45930;53.514;55.904;2023-05-16T02:48:48;50.15;;;40.72;;
60054;SDS011;45930;53.514;55.904;2023-05-16T02:49:50;47.78;;;38.90;;
60054;SDS011;45930;53.514;55.904;2023-05-16T02:50:53;43.47;;;36.75;;
60054;SDS011;45930;53.514;55.904;2023-05-16T02:51:54;44.90;;;38.13;;
60054;SDS011;45930;53.514;55.904;2023-05-16T02:52:55;47.85;;;37.28;;
60054;SDS011;45930;53.514;55.904;2023-05-16T02:53:56;45.08;;;37.17;;
60054;SDS011;45930;53.514;55.904;2023-05-16T02:54:58;44.78;;;37.88;;
60054;SDS011;45930;53.514;55.904;2023-05-16T02:56:02;45.15;;;37.38;;
60054;SDS011;45930;53.514;55.904;2023-05-16T02:57:06;44.63;;;36.67;;
60054;SDS011;45930;53.514;55.904;2023-05-16T02:58:06;45.22;;;37.90;;
60054;SDS011;45930;53.514;55.904;2023-05-16T02:59:07;43.05;;;35.70;;
60054;SDS011;45930;53.514;55.904;2023-05-16T03:00:08;45.47;;;36.25;;
60054;SDS011;45930;53.514;55.904;2023-05-16T03:01:10;43.67;;;37.40;;
60054;SDS011;45930;53.514;55.904;2023-05-16T03:02:11;43.83;;;36.92;;
60054;SDS011;45930;53.514;55.904;2023-05-16T03:03:12;45.78;;;37.95;;
60054;SDS011;45930;53.514;55.904;2023-05-16T03:04:12;46.15;;;36.88;;
60054;SDS011;45930;53.514;55.904;2023-05-16T03:05:14;40.55;;;35.25;;
60054;SDS011;45930;53.514;55.904;2023-05-16T03:06:14;44.83;;;36.55;;
60054;SDS011;45930;53.514;55.904;2023-05-16T03:07:15;43.20;;;35.22;;
60054;SDS011;45930;53.514;55.904;2023-05-16T03:08:17;44.03;;;33.90;;
60054;SDS011;45930;53.514;55.904;2023-05-16T03:09:18;44.60;;;35.72;;
60054;SDS011;45930;53.514;55.904;2023-05-16T03:10:18;40.55;;;34.42;;
60054;SDS011;45930;53.514;55.904;2023-05-16T03:11:19;41.03;;;34.20;;
60054;SDS011;45930;53.514;55.904;2023-05-16T03:12:21;40.67;;;33.50;;
60054;SDS011;45930;53.514;55.904;2023-05-16T03:13:22;39.75;;;35.42;;
60054;SDS011;45930;53.514;55.904;2023-05-16T03:14:23;40.00;;;34.83;;
60054;SDS011;45930;53.514;55.904;2023-05-16T03:15:24;38.70;;;32.30;;
60054;SDS011;45930;53.514;55.904;2023-05-16T03:16:25;37.03;;;32.47;;
60054;SDS011;45930;53.514;55.904;2023-05-16T03:17:25;39.35;;;35.03;;
60054;SDS011;45930;53.514;55.904;2023-05-16T03:18:26;38.88;;;32.97;;
60054;SDS011;45930;53.514;55.904;2023-05-16T03:19:27;39.95;;;35.15;;
60054;SDS011;45930;53.514;55.904;2023-05-16T03:20:28;40.70;;;35.25;;
60054;SDS011;45930;53.514;55.904;2023-05-16T03:21:29;40.88;;;33.92;;
60054;SDS011;45930;53.514;55.904;2023-05-16T03:22:30;43.17;;;35.47;;
60054;SDS011;45930;53.514;55.904;2023-05-16T03:23:31;40.10;;;35.60;;
60054;SDS011;45930;53.514;55.904;2023-05-16T03:24:32;40.03;;;33.38;;
60054;SDS011;45930;53.514;55.904;2023-05-16T03:25:33;39.13;;;34.17;;
60054;SDS011;45930;53.514;55.904;2023-05-16T03:26:35;38.03;;;32.58;;
60054;SDS011;45930;53.514;55.904;2023-05-16T03:27:36;37.08;;;33.08;;
60054;SDS011;45930;53.514;55.904;2023-05-16T03:28:37;35.33;;;31.60;;
60054;SDS011;45930;53.514;55.904;2023-05-16T03:29:37;36.88;;;32.42;;
60054;SDS011;45930;53.514;55.904;2023-05-16T03:30:38;35.35;;;31.52;;
60054;SDS011;45930;53.514;55.904;2023-05-16T03:31:39;36.40;;;32.42;;
60054;SDS011;45930;53.514;55.904;2023-05-16T03:32:41;34.65;;;30.85;;
60054;SDS011;45930;53.514;55.904;2023-05-16T03:33:45;35.88;;;31.58;;
60054;SDS011;45930;53.514;55.904;2023-05-16T03:34:45;35.42;;;30.52;;
60054;SDS011;45930;53.514;55.904;2023-05-16T03:35:46;38.58;;;32.53;;
60054;SDS011;45930;53.514;55.904;2023-05-16T03:36:50;35.60;;;31.77;;
60054;SDS011;45930;53.514;55.904;2023-05-16T03:37:51;36.90;;;33.00;;
60054;SDS011;45930;53.514;55.904;2023-05-16T03:38:51;35.47;;;31.08;;
60054;SDS011;45930;53.514;55.904;2023-05-16T03:39:52;38.67;;;32.40;;
60054;SDS011;45930;53.514;55.904;2023-05-16T03:40:53;37.03;;;31.55;;
60054;SDS011;45930;53.514;55.904;2023-05-16T03:41:54;38.78;;;33.03;;
60054;SDS011;45930;53.514;55.904;2023-05-16T03:42:56;37.05;;;33.08;;
60054;SDS011;45930;53.514;55.904;2023-05-16T03:43:57;37.47;;;33.47;;
60054;SDS011;45930;53.514;55.904;2023-05-16T03:44:58;34.67;;;30.92;;
60054;SDS011;45930;53.514;55.904;2023-05-16T03:46:00;37.42;;;32.30;;
60054;SDS011;45930;53.514;55.904;2023-05-16T03:47:01;34.20;;;30.45;;
60054;SDS011;45930;53.514;55.904;2023-05-16T03:48:02;34.78;;;31.08;;
60054;SDS011;45930;53.514;55.904;2023-05-16T03:49:03;35.75;;;31.67;;
60054;SDS011;45930;53.514;55.904;2023-05-16T03:50:04;34.15;;;30.35;;
60054;SDS011;45930;53.514;55.904;2023-05-16T03:51:05;33.25;;;29.63;;
60054;SDS011;45930;53.514;55.904;2023-05-16T03:52:06;33.45;;;28.83;;
60054;SDS011;45930;53.514;55.904;2023-05-16T03:53:07;32.67;;;27.85;;
60054;SDS011;45930;53.514;55.904;2023-05-16T03:54:08;31.80;;;28.48;;
60054;SDS011;45930;53.514;55.904;2023-05-16T03:55:09;32.13;;;28.67;;
60054;SDS011;45930;53.514;55.904;2023-05-16T03:56:13;35.88;;;28.48;;
60054;SDS011;45930;53.514;55.904;2023-05-16T03:57:14;33.38;;;29.75;;
60054;SDS011;45930;53.514;55.904;2023-05-16T03:58:15;33.17;;;29.58;;
60054;SDS011;45930;53.514;55.904;2023-05-16T03:59:16;34.03;;;29.50;;
60054;SDS011;45930;53.514;55.904;2023-05-16T04:00:16;31.42;;;28.02;;
60054;SDS011;45930;53.514;55.904;2023-05-16T04:01:17;32.72;;;29.20;;
60054;SDS011;45930;53.514;55.904;2023-05-16T04:02:18;32.90;;;29.13;;
60054;SDS011;45930;53.514;55.904;2023-05-16T04:03:19;31.23;;;27.55;;
60054;SDS011;45930;53.514;55.904;2023-05-16T04:04:27;33.00;;;29.35;;
60054;SDS011;45930;53.514;55.904;2023-05-16T04:05:28;32.90;;;29.40;;
60054;SDS011;45930;53.514;55.904;2023-05-16T04:06:29;33.15;;;29.45;;
60054;SDS011;45930;53.514;55.904;2023-05-16T04:07:30;32.60;;;28.83;;
60054;SDS011;45930;53.514;55.904;2023-05-16T04:08:30;32.55;;;28.73;;
60054;SDS011;45930;53.514;55.904;2023-05-16T04:09:31;32.20;;;28.38;;
60054;SDS011;45930;53.514;55.904;2023-05-16T04:10:32;33.42;;;29.77;;
60054;SDS011;45930;53.514;55.904;2023-05-16T04:11:33;30.98;;;27.58;;
60054;SDS011;45930;53.514;55.904;2023-05-16T04:12:33;31.38;;;28.17;;
60054;SDS011;45930;53.514;55.904;2023-05-16T04:13:35;33.65;;;28.52;;
60054;SDS011;45930;53.514;55.904;2023-05-16T04:14:35;30.67;;;27.52;;
60054;SDS011;45930;53.514;55.904;2023-05-16T04:15:37;33.20;;;28.50;;
60054;SDS011;45930;53.514;55.904;2023-05-16T04:16:38;31.30;;;28.00;;
60054;SDS011;45930;53.514;55.904;2023-05-16T04:17:39;30.55;;;27.20;;
60054;SDS011;45930;53.514;55.904;2023-05-16T04:18:39;31.67;;;27.88;;
60054;SDS011;45930;53.514;55.904;2023-05-16T04:19:40;32.80;;;28.05;;
60054;SDS011;45930;53.514;55.904;2023-05-16T04:20:41;33.42;;;29.63;;
60054;SDS011;45930;53.514;55.904;2023-05-16T04:21:42;31.45;;;26.95;;
60054;SDS011;45930;53.514;55.904;2023-05-16T04:22:43;32.47;;;28.95;;
60054;SDS011;45930;53.514;55.904;2023-05-16T04:23:44;29.73;;;26.70;;
60054;SDS011;45930;53.514;55.904;2023-05-16T04:24:44;32.28;;;28.80;;
60054;SDS011;45930;53.514;55.904;2023-05-16T04:25:45;33.05;;;29.45;;
60054;SDS011;45930;53.514;55.904;2023-05-16T04:26:46;30.55;;;27.33;;
60054;SDS011;45930;53.514;55.904;2023-05-16T04:27:47;30.23;;;27.02;;
60054;SDS011;45930;53.514;55.904;2023-05-16T04:28:47;34.85;;;26.88;;
60054;SDS011;45930;53.514;55.904;2023-05-16T04:29:48;35.25;;;26.90;;
60054;SDS011;45930;53.514;55.904;2023-05-16T04:30:49;33.10;;;27.80;;
60054;SDS011;45930;53.514;55.904;2023-05-16T04:31:50;31.52;;;27.15;;
60054;SDS011;45930;53.514;55.904;2023-05-16T04:32:51;30.70;;;27.50;;
60054;SDS011;45930;53.514;55.904;2023-05-16T04:33:52;31.48;;;28.08;;
60054;SDS011;45930;53.514;55.904;2023-05-16T04:34:53;29.70;;;26.58;;
60054;SDS011;45930;53.514;55.904;2023-05-16T04:35:54;29.60;;;26.45;;
60054;SDS011;45930;53.514;55.904;2023-05-16T04:36:57;30.70;;;26.52;;
60054;SDS011;45930;53.514;55.904;2023-05-16T04:37:58;31.23;;;27.88;;
60054;SDS011;45930;53.514;55.904;2023-05-16T04:38:59;30.67;;;27.52;;
60054;SDS011;45930;53.514;55.904;2023-05-16T04:40:00;34.25;;;28.50;;
60054;SDS011;45930;53.514;55.904;2023-05-16T04:41:01;31.50;;;27.30;;
60054;SDS011;45930;53.514;55.904;2023-05-16T04:42:03;31.67;;;28.38;;
60054;SDS011;45930;53.514;55.904;2023-05-16T04:43:04;30.88;;;27.63;;
60054;SDS011;45930;53.514;55.904;2023-05-16T04:44:05;31.77;;;28.50;;
60054;SDS011;45930;53.514;55.904;2023-05-16T04:45:07;32.20;;;28.77;;
60054;SDS011;45930;53.514;55.904;2023-05-16T04:46:10;32.75;;;29.25;;
60054;SDS011;45930;53.514;55.904;2023-05-16T04:47:11;31.77;;;28.20;;
60054;SDS011;45930;53.514;55.904;2023-05-16T04:48:12;31.95;;;28.38;;
60054;SDS011;45930;53.514;55.904;2023-05-16T04:49:12;30.98;;;27.70;;
60054;SDS011;45930;53.514;55.904;2023-05-16T04:50:13;33.05;;;28.42;;
60054;SDS011;45930;53.514;55.904;2023-05-16T04:51:15;33.45;;;29.85;;
60054;SDS011;45930;53.514;55.904;2023-05-16T04:52:16;31.83;;;28.40;;
60054;SDS011;45930;53.514;55.904;2023-05-16T04:53:16;31.10;;;28.00;;
60054;SDS011;45930;53.514;55.904;2023-05-16T04:54:17;30.67;;;27.52;;
60054;SDS011;45930;53.514;55.904;2023-05-16T04:55:18;32.72;;;28.20;;
60054;SDS011;45930;53.514;55.904;2023-05-16T04:56:19;29.73;;;26.58;;
60054;SDS011;45930;53.514;55.904;2023-05-16T04:57:20;31.92;;;28.52;;
60054;SDS011;45930;53.514;55.904;2023-05-16T04:58:21;31.60;;;27.98;;
60054;SDS011;45930;53.514;55.904;2023-05-16T04:59:23;31.42;;;26.88;;
60054;SDS011;45930;53.514;55.904;2023-05-16T05:00:24;30.35;;;26.73;;
60054;SDS011;45930;53.514;55.904;2023-05-16T05:01:24;32.38;;;28.88;;
60054;SDS011;45930;53.514;55.904;2023-05-16T05:02:25;31.45;;;27.67;;
60054;SDS011;45930;53.514;55.904;2023-05-16T05:03:26;31.35;;;26.15;;
60054;SDS011;45930;53.514;55.904;2023-05-16T05:04:27;32.83;;;28.38;;
60054;SDS011;45930;53.514;55.904;2023-05-16T05:05:28;31.60;;;28.40;;
60054;SDS011;45930;53.514;55.904;2023-05-16T05:06:28;29.75;;;26.67;;
60054;SDS011;45930;53.514;55.904;2023-05-16T05:07:29;31.15;;;27.80;;
60054;SDS011;45930;53.514;55.904;2023-05-16T05:08:30;29.55;;;26.42;;
60054;SDS011;45930;53.514;55.904;2023-05-16T05:09:31;30.50;;;27.42;;
60054;SDS011;45930;53.514;55.904;2023-05-16T05:10:32;30.85;;;27.65;;
60054;SDS011;45930;53.514;55.904;2023-05-16T05:11:33;29.88;;;26.70;;
60054;SDS011;45930;53.514;55.904;2023-05-16T05:12:34;29.88;;;26.83;;
60054;SDS011;45930;53.514;55.904;2023-05-16T05:13:35;29.17;;;26.30;;
60054;SDS011;45930;53.514;55.904;2023-05-16T05:14:35;29.63;;;26.55;;
60054;SDS011;45930;53.514;55.904;2023-05-16T05:15:36;30.08;;;26.90;;
60054;SDS011;45930;53.514;55.904;2023-05-16T05:16:37;27.45;;;24.65;;
60054;SDS011;45930;53.514;55.904;2023-05-16T05:17:44;29.55;;;26.10;;
60054;SDS011;45930;53.514;55.904;2023-05-16T05:18:45;29.23;;;26.23;;
60054;SDS011;45930;53.514;55.904;2023-05-16T05:19:46;28.45;;;25.42;;
60054;SDS011;45930;53.514;55.904;2023-05-16T05:20:47;28.25;;;25.35;;
60054;SDS011;45930;53.514;55.904;2023-05-16T05:21:48;28.08;;;25.08;;
60054;SDS011;45930;53.514;55.904;2023-05-16T05:22:49;28.90;;;25.92;;
60054;SDS011;45930;53.514;55.904;2023-05-16T05:23:50;27.63;;;24.80;;
60054;SDS011;45930;53.514;55.904;2023-05-16T05:24:50;28.42;;;25.48;;
60054;SDS011;45930;53.514;55.904;2023-05-16T05:25:51;28.33;;;25.45;;
60054;SDS011;45930;53.514;55.904;2023-05-16T05:26:52;28.58;;;25.77;;
60054;SDS011;45930;53.514;55.904;2023-05-16T05:27:53;28.95;;;26.08;;
60054;SDS011;45930;53.514;55.904;2023-05-16T05:28:54;28.45;;;25.55;;
60054;SDS011;45930;53.514;55.904;2023-05-16T05:29:54;28.63;;;25.67;;
60054;SDS011;45930;53.514;55.904;2023-05-16T05:30:55;28.27;;;25.48;;
60054;SDS011;45930;53.514;55.904;2023-05-16T05:31:56;28.70;;;25.70;;
60054;SDS011;45930;53.514;55.904;2023-05-16T05:32:57;28.10;;;25.20;;
60054;SDS011;45930;53.514;55.904;2023-05-16T05:33:58;28.65;;;25.65;;
60054;SDS011;45930;53.514;55.904;2023-05-16T05:34:58;28.40;;;25.55;;
60054;SDS011;45930;53.514;55.904;2023-05-16T05:35:59;30.58;;;25.33;;
60054;SDS011;45930;53.514;55.904;2023-05-16T05:37:00;27.52;;;24.73;;
60054;SDS011;45930;53.514;55.904;2023-05-16T05:38:01;28.17;;;25.38;;
60054;SDS011;45930;53.514;55.904;2023-05-16T05:39:01;28.42;;;25.40;;
60054;SDS011;45930;53.514;55.904;2023-05-16T05:40:02;28.17;;;25.25;;
60054;SDS011;45930;53.514;55.904;2023-05-16T05:41:05;28.52;;;25.58;;
60054;SDS011;45930;53.514;55.904;2023-05-16T05:42:06;30.08;;;25.52;;
60054;SDS011;45930;53.514;55.904;2023-05-16T05:43:07;28.95;;;25.98;;
60054;SDS011;45930;53.514;55.904;2023-05-16T05:44:07;29.88;;;26.70;;
60054;SDS011;45930;53.514;55.904;2023-05-16T05:45:08;29.13;;;26.20;;
60054;SDS011;45930;53.514;55.904;2023-05-16T05:46:09;29.10;;;25.83;;
60054;SDS011;45930;53.514;55.904;2023-05-16T05:47:10;30.00;;;26.90;;
60054;SDS011;45930;53.514;55.904;2023-05-16T05:48:11;29.08;;;26.20;;
60054;SDS011;45930;53.514;55.904;2023-05-16T05:49:12;29.75;;;26.60;;
60054;SDS011;45930;53.514;55.904;2023-05-16T05:50:13;29.05;;;26.00;;
60054;SDS011;45930;53.514;55.904;2023-05-16T05:51:15;28.17;;;25.27;;
60054;SDS011;45930;53.514;55.904;2023-05-16T05:52:16;28.40;;;25.50;;
60054;SDS011;45930;53.514;55.904;2023-05-16T05:53:17;29.15;;;26.17;;
60054;SDS011;45930;53.514;55.904;2023-05-16T05:54:18;30.05;;;26.85;;
60054;SDS011;45930;53.514;55.904;2023-05-16T05:55:19;30.63;;;27.35;;
60054;SDS011;45930;53.514;55.904;2023-05-16T05:56:20;30.35;;;27.05;;
60054;SDS011;45930;53.514;55.904;2023-05-16T05:57:21;29.52;;;26.50;;
60054;SDS011;45930;53.514;55.904;2023-05-16T05:58:22;28.48;;;25.38;;
60054;SDS011;45930;53.514;55.904;2023-05-16T05:59:23;30.13;;;27.15;;
60054;SDS011;45930;53.514;55.904;2023-05-16T06:00:23;27.90;;;25.00;;
60054;SDS011;45930;53.514;55.904;2023-05-16T06:01:25;30.15;;;26.95;;
60054;SDS011;45930;53.514;55.904;2023-05-16T06:02:26;31.50;;;27.15;;
60054;SDS011;45930;53.514;55.904;2023-05-16T06:03:27;27.77;;;24.98;;
60054;SDS011;45930;53.514;55.904;2023-05-16T06:04:27;27.20;;;24.40;;
60054;SDS011;45930;53.514;55.904;2023-05-16T06:05:28;27.67;;;24.85;;
60054;SDS011;45930;53.514;55.904;2023-05-16T06:06:29;29.77;;;25.80;;
60054;SDS011;45930;53.514;55.904;2023-05-16T06:07:31;29.25;;;26.42;;
60054;SDS011;45930;53.514;55.904;2023-05-16T06:08:31;32.60;;;26.27;;
60054;SDS011;45930;53.514;55.904;2023-05-16T06:09:32;29.55;;;26.40;;